Time;durP1;ratioP1;P1;durP2;ratioP2;P2;SDS_P1;SDS_P2;PMS_P1;PMS_P2;Temp;Humidity;BMP_temperature;BMP_pressure;BME280_temperature;BME280_humidity;BME280_pressure;Samples;Min_cycle;Max_cycle;Signal;HPM_P1;HPM_P2
2023/08/07 00:01:02;;;;;;;5.78;4.95;;;;;;;22.35;90.74;99692.44;4968714;28;20050;-78
2023/08/07 00:03:27;;;;;;;7.45;5.18;;;;;;;22.28;92.08;99679.84;4970196;28;20090;-79
2023/08/07 00:05:53;;;;;;;7.18;5.65;;;;;;;22.32;93.35;99692.91;4970596;28;20406;-80
2023/08/07 00:08:19;;;;;;;14.65;5.65;;;;;;;22.28;93.44;99691.66;4970171;28;20031;-78
2023/08/07 00:10:44;;;;;;;9.18;6.80;;;;;;;22.32;92.58;99698.38;4970221;28;20458;-78
2023/08/07 00:13:09;;;;;;;7.30;5.65;;;;;;;22.25;93.76;99694.84;4970045;28;20027;-79
2023/08/07 00:15:37;;;;;;;9.38;5.95;;;;;;;22.23;92.72;99699.72;4970187;28;20042;-78
2023/08/07 00:18:03;;;;;;;7.78;5.97;;;;;;;22.22;92.43;99692.53;4968665;28;20030;-78
2023/08/07 00:20:28;;;;;;;14.68;6.70;;;;;;;22.26;93.40;99691.06;4970147;28;20038;-79
2023/08/07 00:22:54;;;;;;;8.00;5.75;;;;;;;22.26;92.03;99696.53;4969956;28;20050;-78
2023/08/07 00:25:19;;;;;;;8.38;6.38;;;;;;;22.31;91.66;99702.16;4970040;28;20037;-78
2023/08/07 00:27:45;;;;;;;7.82;6.18;;;;;;;22.33;91.36;99700.03;4969945;28;20027;-79
2023/08/07 00:30:11;;;;;;;8.75;6.97;;;;;;;22.32;91.26;99703.00;4970127;28;20026;-78
2023/08/07 00:32:36;;;;;;;8.27;6.78;;;;;;;22.30;94.18;99695.00;4970338;28;20043;-78
2023/08/07 00:35:02;;;;;;;7.53;6.68;;;;;;;22.22;91.25;99690.66;4970011;28;20419;-78
2023/08/07 00:37:27;;;;;;;9.30;8.07;;;;;;;22.28;92.04;99696.28;4969838;28;20101;-79
2023/08/07 00:39:52;;;;;;;11.40;7.55;;;;;;;22.17;91.52;99684.97;4969912;28;20023;-79
2023/08/07 00:42:18;;;;;;;9.25;7.38;;;;;;;22.23;91.83;99699.72;4969941;28;20023;-80
2023/08/07 00:44:43;;;;;;;11.75;8.38;;;;;;;22.16;92.51;99699.75;4971424;28;20080;-80
2023/08/07 00:47:09;;;;;;;11.82;8.60;;;;;;;22.15;91.94;99714.50;4973682;28;20404;-79
2023/08/07 00:49:35;;;;;;;9.48;8.45;;;;;;;22.11;92.02;99705.03;4973482;28;20038;-79
2023/08/07 00:52:01;;;;;;;10.20;8.48;;;;;;;22.07;92.27;99713.94;4988521;28;20050;-80
2023/08/07 00:54:27;;;;;;;17.48;9.57;;;;;;;21.99;92.16;99722.41;4974782;28;20414;-79
2023/08/07 00:56:52;;;;;;;12.20;8.85;;;;;;;21.92;92.51;99707.94;4974033;28;20026;-79
2023/08/07 00:59:18;;;;;;;10.43;8.82;;;;;;;21.88;91.95;99721.22;4973832;28;20026;-80
2023/08/07 01:01:44;;;;;;;10.57;8.57;;;;;;;21.79;91.88;99707.97;4973565;28;20051;-79
2023/08/07 01:04:10;;;;;;;13.43;8.98;;;;;;;21.84;92.15;99711.72;4973657;28;20027;-79
2023/08/07 01:06:35;;;;;;;13.70;10.48;;;;;;;21.85;90.39;99729.84;4973337;28;20038;-79
2023/08/07 01:09:01;;;;;;;13.05;10.80;;;;;;;21.80;91.89;99726.94;4973491;28;20023;-79
2023/08/07 01:11:57;;;;;;;12.05;10.30;;;;;;;21.88;93.89;99734.91;4973247;28;20110;-79
2023/08/07 01:14:51;;;;;;;13.68;10.52;;;;;;;21.80;92.77;99731.56;4974173;28;20023;-80
2023/08/07 01:17:19;;;;;;;13.80;10.63;;;;;;;21.73;91.26;99730.75;4913370;29;20048;-79
2023/08/07 01:19:45;;;;;;;13.23;10.85;;;;;;;21.69;90.76;99739.41;4912809;29;20040;-79
2023/08/07 01:22:18;;;;;;;14.38;12.70;;;;;;;21.66;90.81;99744.47;4912717;29;20143;-79
2023/08/07 01:24:46;;;;;;;11.95;10.75;;;;;;;21.66;90.03;99760.88;4913070;29;20032;-79
2023/08/07 01:27:17;;;;;;;15.38;10.70;;;;;;;21.65;92.12;99757.31;4913095;29;20029;-79
2023/08/07 01:30:03;;;;;;;17.35;12.73;;;;;;;21.54;93.06;99755.25;4913105;29;20032;-80
2023/08/07 01:32:44;;;;;;;14.70;12.27;;;;;;;21.59;92.37;99763.63;4912922;29;20091;-79
2023/08/07 01:35:12;;;;;;;14.48;11.32;;;;;;;21.49;91.32;99766.03;4912710;29;20619;-81
2023/08/07 01:37:40;;;;;;;17.65;12.45;;;;;;;21.53;92.75;99772.72;4912991;29;20043;-79
2023/08/07 01:40:07;;;;;;;15.15;12.50;;;;;;;21.48;93.14;99777.16;4912976;29;20181;-78
2023/08/07 01:42:33;;;;;;;13.32;11.85;;;;;;;21.48;93.21;99775.28;4912889;29;20036;-79
2023/08/07 01:45:00;;;;;;;15.57;11.90;;;;;;;21.44;93.01;99787.69;4913407;29;20558;-79
2023/08/07 01:47:25;;;;;;;21.35;12.73;;;;;;;21.44;93.41;99790.44;4913611;29;20051;-79
2023/08/07 01:49:51;;;;;;;17.65;12.95;;;;;;;21.39;92.63;99789.41;4914086;29;20036;-79
2023/08/07 01:52:16;;;;;;;21.02;11.50;;;;;;;21.47;93.08;99792.75;4913088;29;20036;-79
2023/08/07 01:54:42;;;;;;;18.83;12.73;;;;;;;21.46;92.80;99791.06;4958746;28;20495;-79
2023/08/07 01:57:07;;;;;;;14.23;11.50;;;;;;;21.39;92.78;99792.97;4972196;28;20505;-79
2023/08/07 01:59:33;;;;;;;23.30;13.40;;;;;;;21.39;92.38;99806.66;4972114;28;20410;-79
2023/08/07 02:01:58;;;;;;;16.58;12.75;;;;;;;21.31;92.28;99798.69;4972505;28;20386;-79
2023/08/07 02:04:24;;;;;;;15.77;13.25;;;;;;;21.32;91.43;99794.88;4971254;28;20501;-80
2023/08/07 02:06:49;;;;;;;13.38;11.95;;;;;;;21.39;91.24;99800.34;4972497;28;20023;-79
2023/08/07 02:09:15;;;;;;;14.10;12.15;;;;;;;21.35;90.87;99802.66;4972268;28;20037;-79
2023/08/07 02:11:40;;;;;;;16.88;12.88;;;;;;;21.37;90.46;99806.03;4972388;28;20027;-79
2023/08/07 02:14:05;;;;;;;11.95;10.75;;;;;;;21.30;89.58;99790.69;4972405;28;20060;-79
2023/08/07 02:16:31;;;;;;;16.67;11.95;;;;;;;21.39;90.85;99811.28;4972115;28;20037;-79
2023/08/07 02:18:56;;;;;;;13.82;11.98;;;;;;;21.32;89.81;99805.81;4971870;28;20026;-79
2023/08/07 02:21:22;;;;;;;12.15;10.50;;;;;;;21.28;89.33;99801.00;4972269;28;20027;-78
2023/08/07 02:23:47;;;;;;;15.50;11.82;;;;;;;21.39;88.92;99819.50;4972348;28;20482;-81
2023/08/07 02:26:13;;;;;;;13.43;11.63;;;;;;;21.37;88.94;99819.72;4971963;28;20138;-79
2023/08/07 02:28:38;;;;;;;16.30;12.73;;;;;;;21.25;88.13;99796.81;4971826;28;20054;-77
2023/08/07 02:31:04;;;;;;;13.68;11.13;;;;;;;21.23;87.91;99815.31;4971622;28;20023;-80
2023/08/07 02:33:30;;;;;;;17.50;11.73;;;;;;;21.17;88.73;99813.44;4971845;28;20446;-80
2023/08/07 02:35:56;;;;;;;15.18;11.38;;;;;;;21.16;89.93;99819.94;4971575;28;20027;-79
2023/08/07 02:38:21;;;;;;;19.73;9.63;;;;;;;21.06;89.78;99814.91;4971798;28;20038;-80
2023/08/07 02:40:47;;;;;;;12.90;10.35;;;;;;;21.02;91.39;99815.53;4971947;28;20023;-79
2023/08/07 02:43:12;;;;;;;15.90;10.63;;;;;;;20.94;90.34;99824.81;4971692;28;20031;-79
2023/08/07 02:45:38;;;;;;;12.55;10.63;;;;;;;21.00;90.66;99828.59;4970451;28;20062;-78
2023/08/07 02:48:04;;;;;;;15.40;10.45;;;;;;;20.98;90.27;99830.66;4971732;28;20030;-80
2023/08/07 02:50:32;;;;;;;10.55;8.93;;;;;;;20.90;89.79;99828.16;4971779;28;20113;-80
2023/08/07 02:52:58;;;;;;;15.85;9.77;;;;;;;20.86;91.48;99826.88;4971196;28;20506;-79
2023/08/07 02:55:23;;;;;;;14.75;10.15;;;;;;;20.71;89.90;99831.72;4973860;28;20399;-78
2023/08/07 02:57:49;;;;;;;16.65;10.60;;;;;;;20.76;91.53;99837.41;4976413;28;20104;-79
2023/08/07 03:00:14;;;;;;;13.45;9.93;;;;;;;20.64;90.97;99824.34;4980553;28;20097;-78
2023/08/07 03:02:40;;;;;;;12.07;9.15;;;;;;;20.64;91.89;99834.44;4986028;28;20023;-80
2023/08/07 03:05:06;;;;;;;13.45;10.25;;;;;;;20.63;91.81;99844.56;4984836;28;20042;-80
2023/08/07 03:07:31;;;;;;;11.48;10.27;;;;;;;20.67;93.90;99839.53;4976724;28;20035;-80
2023/08/07 03:09:57;;;;;;;16.70;10.20;;;;;;;20.56;93.22;99838.22;4974035;28;20026;-81
2023/08/07 03:12:22;;;;;;;10.55;9.48;;;;;;;20.46;93.58;99837.78;4975301;28;20454;-80
2023/08/07 03:14:47;;;;;;;18.70;10.32;;;;;;;20.57;94.99;99850.00;4973967;28;20362;-79
2023/08/07 03:17:13;;;;;;;11.43;10.00;;;;;;;20.52;94.67;99849.78;4972044;28;20030;-80
2023/08/07 03:19:41;;;;;;;16.95;9.65;;;;;;;20.52;93.15;99858.81;4971034;28;20030;-79
2023/08/07 03:22:07;;;;;;;12.07;9.90;;;;;;;20.46;92.52;99848.72;4971086;28;20117;-80
2023/08/07 03:24:32;;;;;;;12.32;10.05;;;;;;;20.56;90.61;99860.09;4971132;28;20372;-80
2023/08/07 03:26:58;;;;;;;14.90;10.27;;;;;;;20.55;90.42;99850.19;4971179;28;20027;-79
2023/08/07 03:29:23;;;;;;;12.13;9.13;;;;;;;20.56;91.66;99859.25;4952523;28;20096;-78
2023/08/07 03:31:49;;;;;;;10.30;8.13;;;;;;;20.62;91.59;99872.91;4971383;28;20031;-81
2023/08/07 03:34:14;;;;;;;10.35;8.93;;;;;;;20.60;91.51;99875.03;4981971;28;20019;-79
2023/08/07 03:36:39;;;;;;;14.32;8.50;;;;;;;20.53;90.56;99865.97;4980456;28;20053;-79
2023/08/07 03:39:05;;;;;;;11.50;8.68;;;;;;;20.53;88.28;99865.13;4979109;28;20382;-79
2023/08/07 03:41:30;;;;;;;16.73;8.20;;;;;;;20.57;87.19;99877.31;4979195;28;20113;-79
2023/08/07 03:43:56;;;;;;;9.05;7.85;;;;;;;20.56;87.30;99861.97;4979519;28;20057;-79
2023/08/07 03:46:21;;;;;;;23.08;8.68;;;;;;;20.52;88.49;99864.28;4978889;28;20035;-80
2023/08/07 03:48:47;;;;;;;14.40;8.40;;;;;;;20.51;88.27;99878.16;4981851;28;20050;-79
2023/08/07 03:51:13;;;;;;;13.60;6.85;;;;;;;20.54;89.19;99867.66;4974466;28;20491;-78
2023/08/07 03:53:39;;;;;;;20.80;7.85;;;;;;;20.47;89.60;99865.94;4970280;28;20022;-78
2023/08/07 03:56:04;;;;;;;11.07;7.97;;;;;;;20.45;87.64;99870.78;4970557;28;20027;-78
2023/08/07 03:58:29;;;;;;;14.15;7.95;;;;;;;20.43;89.57;99867.41;4970492;28;20030;-81
2023/08/07 04:00:55;;;;;;;45.88;10.98;;;;;;;20.33;88.30;99870.56;4970555;28;20140;-81
2023/08/07 04:03:21;;;;;;;16.08;7.70;;;;;;;20.49;89.77;99875.63;4970286;28;20095;-78
2023/08/07 04:05:51;;;;;;;11.13;7.38;;;;;;;20.38;87.32;99873.50;4985473;28;20495;-78
2023/08/07 04:08:16;;;;;;;21.98;8.00;;;;;;;20.46;87.90;99877.91;4970450;28;20151;-80
2023/08/07 04:10:42;;;;;;;12.15;7.70;;;;;;;20.50;86.77;99884.66;4970264;28;20035;-79
2023/08/07 04:13:07;;;;;;;9.82;6.90;;;;;;;20.45;86.35;99888.03;4970810;28;20031;-78
2023/08/07 04:15:32;;;;;;;8.73;6.65;;;;;;;20.42;87.53;99882.97;4970530;28;20037;-79
2023/08/07 04:17:58;;;;;;;28.80;8.65;;;;;;;20.45;85.48;99889.91;4970527;28;20027;-78
2023/08/07 04:20:24;;;;;;;10.98;6.63;;;;;;;20.47;85.58;99891.38;4974117;28;20049;-80
2023/08/07 04:22:50;;;;;;;14.70;5.60;;;;;;;20.42;85.03;99885.72;4974091;28;20034;-78
2023/08/07 04:25:16;;;;;;;11.73;5.93;;;;;;;20.44;84.35;99891.78;4973850;28;20565;-81
2023/08/07 04:27:41;;;;;;;10.75;5.90;;;;;;;20.53;82.42;99885.09;4972993;28;20069;-80
2023/08/07 04:30:07;;;;;;;10.77;5.38;;;;;;;20.63;83.50;99896.47;4974230;28;20038;-80
2023/08/07 04:32:32;;;;;;;15.95;5.47;;;;;;;20.62;82.41;99892.03;4974376;28;20027;-80
2023/08/07 04:34:59;;;;;;;13.95;5.13;;;;;;;20.69;82.37;99897.53;4974221;28;20097;-80
2023/08/07 04:37:24;;;;;;;15.07;5.47;;;;;;;20.67;79.41;99896.06;4973948;28;20031;-79
2023/08/07 04:39:49;;;;;;;12.95;5.20;;;;;;;20.82;77.77;99900.28;4972402;28;20019;-79
2023/08/07 04:42:15;;;;;;;16.35;5.45;;;;;;;20.74;79.21;99908.66;4973769;28;20035;-78
2023/08/07 04:44:40;;;;;;;6.00;4.72;;;;;;;20.76;77.58;99887.47;4973942;28;20026;-80
2023/08/07 04:47:06;;;;;;;7.35;5.43;;;;;;;20.81;79.00;99897.75;4973626;28;20414;-79
2023/08/07 04:49:32;;;;;;;10.57;5.22;;;;;;;20.80;78.48;99898.78;4977603;28;20031;-80
2023/08/07 04:51:57;;;;;;;15.82;5.30;;;;;;;20.91;77.50;99890.84;4989865;28;20134;-79
2023/08/07 04:54:23;;;;;;;14.27;4.38;;;;;;;20.99;78.39;99898.81;4972063;28;20041;-80
2023/08/07 04:56:48;;;;;;;5.35;4.10;;;;;;;20.98;75.82;99907.22;4973617;28;20023;-80
2023/08/07 04:59:13;;;;;;;15.73;4.40;;;;;;;20.94;75.32;99890.41;4974201;28;20035;-80
2023/08/07 05:01:39;;;;;;;11.57;5.32;;;;;;;21.06;77.91;99887.88;4974332;28;20483;-80
2023/08/07 05:04:05;;;;;;;9.93;5.05;;;;;;;21.12;76.40;99900.75;4973605;28;20073;-81
2023/08/07 05:06:31;;;;;;;12.20;4.95;;;;;;;21.13;75.28;99895.06;4974441;28;20023;-80
2023/08/07 05:08:56;;;;;;;7.25;4.47;;;;;;;21.19;74.45;99912.53;4975412;28;20057;-81
2023/08/07 05:11:22;;;;;;;8.93;4.18;;;;;;;21.19;74.28;99909.81;4975767;28;20482;-80
2023/08/07 05:13:47;;;;;;;13.52;4.60;;;;;;;21.19;74.50;99908.97;4975092;28;20478;-79
2023/08/07 05:16:13;;;;;;;14.27;4.38;;;;;;;21.17;74.38;99922.81;4974290;28;20545;-79
2023/08/07 05:18:38;;;;;;;9.48;3.58;;;;;;;21.22;75.69;99931.25;4972577;28;20110;-80
2023/08/07 05:21:04;;;;;;;8.15;3.88;;;;;;;21.23;74.60;99919.25;4974267;28;20059;-80
2023/08/07 05:23:29;;;;;;;6.95;4.43;;;;;;;21.30;73.13;99933.78;4974658;28;20402;-79
2023/08/07 05:25:55;;;;;;;10.10;4.35;;;;;;;21.27;74.26;99934.19;4973959;28;20471;-79
2023/08/07 05:28:21;;;;;;;16.38;5.13;;;;;;;21.32;73.75;99939.88;4973775;28;20033;-80
2023/08/07 05:30:46;;;;;;;19.10;3.63;;;;;;;21.39;72.50;99932.50;4972869;28;20089;-80
2023/08/07 05:33:14;;;;;;;13.25;3.83;;;;;;;21.47;72.01;99939.63;4974418;28;20041;-82
2023/08/07 05:35:40;;;;;;;10.95;3.17;;;;;;;21.37;69.34;99929.16;4973070;28;20474;-81
2023/08/07 05:38:05;;;;;;;6.85;2.58;;;;;;;21.38;68.99;99933.53;4974120;28;20054;-79
2023/08/07 05:40:30;;;;;;;18.45;4.18;;;;;;;21.42;69.14;99932.09;4956031;28;20038;-81
2023/08/07 05:42:56;;;;;;;27.52;3.88;;;;;;;21.49;69.66;99932.06;4974481;28;20030;-80
2023/08/07 05:45:21;;;;;;;31.25;3.78;;;;;;;21.52;70.57;99948.91;4974104;28;20035;-81
2023/08/07 05:47:47;;;;;;;7.28;2.70;;;;;;;21.56;67.92;99952.03;4974648;28;20027;-82
2023/08/07 05:50:12;;;;;;;6.15;2.97;;;;;;;21.57;68.85;99949.13;4974773;28;20039;-80
2023/08/07 05:52:38;;;;;;;24.30;2.90;;;;;;;21.61;67.25;99953.13;4974535;28;20031;-81
2023/08/07 05:55:04;;;;;;;18.70;3.55;;;;;;;21.68;67.48;99948.47;4974993;28;20161;-82
2023/08/07 05:57:29;;;;;;;57.53;6.82;;;;;;;21.64;66.52;99939.00;4974317;28;20038;-80
2023/08/07 05:59:55;;;;;;;9.90;2.58;;;;;;;21.77;65.41;99948.25;4972755;28;20421;-80
2023/08/07 06:02:20;;;;;;;5.07;2.58;;;;;;;21.84;66.91;99951.78;4974687;28;20089;-81
2023/08/07 06:04:46;;;;;;;19.55;3.65;;;;;;;21.82;65.54;99951.19;4973750;28;20031;-81
2023/08/07 06:07:12;;;;;;;15.48;2.45;;;;;;;21.72;65.64;99926.97;4973130;28;20031;-82
2023/08/07 06:09:37;;;;;;;3.17;2.15;;;;;;;21.77;66.63;99940.03;4973915;28;20058;-81
2023/08/07 06:12:03;;;;;;;8.32;2.30;;;;;;;21.81;63.94;99952.22;4978374;28;20054;-79
2023/08/07 06:14:30;;;;;;;8.82;2.95;;;;;;;21.80;65.94;99951.41;4958096;28;20051;-81
2023/08/07 06:16:57;;;;;;;3.55;2.75;;;;;;;21.89;66.58;99961.09;4980388;28;20022;-82
2023/08/07 06:19:23;;;;;;;2.55;2.35;;;;;;;21.98;65.36;99958.97;4992541;28;20030;-81
2023/08/07 06:21:48;;;;;;;9.85;2.90;;;;;;;22.07;66.47;99957.69;4994806;28;20035;-82
2023/08/07 06:24:14;;;;;;;16.63;3.53;;;;;;;22.11;63.88;99969.88;4994535;28;20023;-84
2023/08/07 06:26:39;;;;;;;23.50;3.22;;;;;;;22.13;62.56;99963.16;4994649;28;20029;-81
2023/08/07 06:29:04;;;;;;;7.95;2.70;;;;;;;22.10;64.18;99957.25;4995420;28;20087;-82
2023/08/07 06:31:30;;;;;;;27.10;3.17;;;;;;;22.18;63.59;99962.47;4994376;28;20034;-85
2023/08/07 06:33:56;;;;;;;22.73;4.28;;;;;;;22.26;64.39;99958.69;4999644;28;20035;-82
2023/08/07 06:36:21;;;;;;;3.40;2.40;;;;;;;22.28;62.51;99960.13;4986976;28;20059;-84
2023/08/07 06:38:47;;;;;;;11.20;2.22;;;;;;;22.42;61.80;99961.75;4994024;28;20027;-83
2023/08/07 06:41:12;;;;;;;26.75;4.03;;;;;;;22.42;59.40;99949.94;4994422;28;20026;-83
2023/08/07 06:43:38;;;;;;;28.50;3.10;;;;;;;22.48;60.13;99954.56;4993823;28;20082;-88
2023/08/07 06:46:03;;;;;;;15.05;2.85;;;;;;;22.46;59.86;99953.94;4993753;28;20030;-85
2023/08/07 06:48:29;;;;;;;6.35;2.70;;;;;;;22.49;60.30;99954.34;4995318;28;20061;-85
2023/08/07 06:50:54;;;;;;;18.10;2.63;;;;;;;22.49;60.01;99956.25;4987030;28;20030;-82
2023/08/07 06:53:20;;;;;;;18.25;4.05;;;;;;;22.62;61.73;99970.75;4971817;28;20238;-84
2023/08/07 06:55:46;;;;;;;7.68;2.50;;;;;;;22.64;60.08;99965.03;4988010;28;20046;-84
2023/08/07 06:58:12;;;;;;;5.88;2.67;;;;;;;22.81;60.49;99973.63;4988269;28;20205;-84
2023/08/07 07:00:37;;;;;;;14.85;2.60;;;;;;;22.82;58.57;99961.56;4988505;28;20046;-83
2023/08/07 07:03:03;;;;;;;3.30;1.90;;;;;;;22.80;57.49;99963.72;4988824;28;20109;-84
2023/08/07 07:05:30;;;;;;;9.90;2.45;;;;;;;22.85;58.54;99978.44;4988699;28;20053;-84
2023/08/07 07:07:56;;;;;;;6.30;2.28;;;;;;;22.85;57.91;99983.91;4956018;28;20034;-84
2023/08/07 07:10:21;;;;;;;7.93;3.25;;;;;;;22.84;56.74;99970.44;4988967;28;20061;-87
2023/08/07 07:12:47;;;;;;;30.35;4.78;;;;;;;22.96;57.93;99985.13;4989748;28;20034;-86
2023/08/07 07:15:12;;;;;;;6.60;2.55;;;;;;;22.88;57.23;99966.19;4990454;28;20128;-85
2023/08/07 07:17:38;;;;;;;14.05;2.90;;;;;;;23.10;58.95;99986.72;4974369;28;20121;-86
2023/08/07 07:20:04;;;;;;;14.77;2.13;;;;;;;23.15;56.95;99992.38;4992053;28;20134;-87
2023/08/07 07:22:31;;;;;;;3.10;2.03;;;;;;;23.06;58.02;99975.34;4988844;28;20046;-85
2023/08/07 07:24:56;;;;;;;3.13;2.25;;;;;;;23.17;58.48;99993.00;4990190;28;20034;-85
2023/08/07 07:27:22;;;;;;;6.60;2.03;;;;;;;23.21;57.33;100010.69;4977537;28;20082;-87
2023/08/07 07:29:48;;;;;;;10.13;2.33;;;;;;;23.27;57.22;100009.84;4970805;28;20030;-85
2023/08/07 07:32:14;;;;;;;6.70;2.30;;;;;;;23.31;56.63;100005.56;4972142;28;20031;-86
2023/08/07 07:34:40;;;;;;;9.85;2.10;;;;;;;23.40;56.67;100004.25;4971316;28;20027;-86
2023/08/07 07:37:05;;;;;;;11.15;1.80;;;;;;;23.57;55.07;100008.16;4972965;28;20026;-87
2023/08/07 07:39:31;;;;;;;8.02;2.17;;;;;;;23.59;55.02;100007.91;4988767;28;20406;-86
2023/08/07 07:41:56;;;;;;;9.80;2.85;;;;;;;23.68;56.89;99996.41;4973836;28;20042;-87
2023/08/07 07:44:22;;;;;;;4.45;2.58;;;;;;;23.58;56.53;99987.84;4975290;28;20038;-88
2023/08/07 07:46:47;;;;;;;9.65;2.03;;;;;;;23.87;53.08;99993.72;4981554;28;20031;-86
2023/08/07 07:49:12;;;;;;;7.10;1.98;;;;;;;23.92;54.40;99991.13;4994523;28;20034;-90
2023/08/07 07:51:38;;;;;;;8.00;2.30;;;;;;;23.97;54.79;99999.53;4995026;28;20027;-88
2023/08/07 07:54:03;;;;;;;4.65;2.42;;;;;;;24.03;54.00;99999.47;4994265;28;20015;-88
2023/08/07 07:56:29;;;;;;;12.10;2.35;;;;;;;24.21;53.39;100020.66;4992195;28;20086;-87
2023/08/07 07:58:55;;;;;;;20.83;2.10;;;;;;;24.13;54.01;99994.31;4989701;28;20023;-87
2023/08/07 08:01:20;;;;;;;9.48;1.92;;;;;;;24.28;52.92;100014.00;4978202;28;20046;-88
2023/08/07 08:03:46;;;;;;;9.65;1.90;;;;;;;24.23;50.67;100010.25;4973361;28;20043;-88
2023/08/07 08:06:12;;;;;;;6.90;1.67;;;;;;;24.20;49.37;99995.06;4974865;28;20035;-86
2023/08/07 08:08:38;;;;;;;8.75;2.28;;;;;;;24.43;49.39;100018.28;4980946;28;20528;-88
2023/08/07 08:11:03;;;;;;;12.57;1.88;;;;;;;24.43;49.99;100032.88;4980255;28;20030;-88
2023/08/07 08:13:29;;;;;;;2.67;1.70;;;;;;;24.52;50.04;100025.16;4976012;28;20023;-88
2023/08/07 08:15:54;;;;;;;16.40;2.63;;;;;;;24.47;50.32;100023.09;4973062;28;20026;-89
2023/08/07 08:18:20;;;;;;;13.85;3.97;;;;;;;24.68;47.98;100036.38;4972540;28;20093;-88
2023/08/07 08:20:45;;;;;;;13.95;2.40;;;;;;;24.59;49.23;99999.25;4972493;28;20026;-88
2023/08/07 08:23:11;;;;;;;6.50;2.20;;;;;;;24.70;48.36;100001.25;4971699;28;20065;-88
2023/08/07 08:25:36;;;;;;;8.45;2.50;;;;;;;24.86;48.56;100022.63;4971801;28;20462;-88
2023/08/07 08:28:02;;;;;;;5.80;2.30;;;;;;;24.92;48.76;100003.53;4972006;28;20026;-88
2023/08/07 08:30:28;;;;;;;15.70;2.92;;;;;;;25.03;48.04;100005.47;4972015;28;20026;-89
2023/08/07 08:32:53;;;;;;;11.50;2.30;;;;;;;25.13;47.58;100011.25;4971742;28;20058;-88
2023/08/07 08:35:19;;;;;;;15.90;2.65;;;;;;;25.08;46.60;99994.59;4970932;28;20042;-88
2023/08/07 08:37:45;;;;;;;4.05;2.35;;;;;;;25.17;47.19;99995.94;4971790;28;20067;-89
2023/08/07 08:40:17;;;;;;;7.93;2.53;;;;;;;25.39;46.68;100005.34;4985832;28;20042;-88
2023/08/07 08:42:46;;;;;;;9.02;2.40;;;;;;;25.55;46.26;100012.94;4971344;28;20565;-88
2023/08/07 08:45:14;;;;;;;3.38;2.50;;;;;;;25.68;47.50;100026.50;4971415;28;20062;-88
2023/08/07 08:47:41;;;;;;;12.50;2.20;;;;;;;25.74;45.93;100019.19;4970755;28;20108;-88
2023/08/07 08:50:09;;;;;;;4.65;2.55;;;;;;;25.77;45.12;100019.56;4971145;28;20474;-89
2023/08/07 08:52:44;;;;;;;9.50;2.13;;;;;;;25.81;44.73;100014.41;4971345;28;20023;-89
2023/08/07 08:55:11;;;;;;;8.93;2.05;;;;;;;25.88;44.85;100035.25;4971545;28;20034;-87
2023/08/07 08:57:38;;;;;;;3.70;1.80;;;;;;;25.95;46.08;100027.72;4986566;28;20376;-90
2023/08/07 09:00:15;;;;;;;7.88;2.15;;;;;;;26.06;44.79;100025.19;4971472;28;20140;-85
2023/08/07 09:02:42;;;;;;;8.30;1.90;;;;;;;26.15;44.51;100037.53;4972834;28;20031;-86
2023/08/07 09:05:07;;;;;;;2.40;1.92;;;;;;;26.18;44.11;100037.06;4982749;28;20410;-84
2023/08/07 09:07:34;;;;;;;8.55;2.00;;;;;;;26.25;44.01;100026.78;4977197;28;20102;-86
2023/08/07 09:10:02;;;;;;;13.07;2.80;;;;;;;26.29;44.87;100020.53;4973932;28;20027;-79
2023/08/07 09:12:32;;;;;;;3.30;1.67;;;;;;;26.44;43.86;100017.28;4955016;28;20049;-80
2023/08/07 09:14:58;;;;;;;3.47;1.90;;;;;;;26.54;44.20;100020.25;4973436;28;20027;-78
2023/08/07 09:17:26;;;;;;;8.32;1.90;;;;;;;26.69;42.13;100023.34;4972265;28;20035;-76
2023/08/07 09:19:52;;;;;;;6.93;2.40;;;;;;;26.85;41.93;100025.34;4973103;28;20027;-80
2023/08/07 09:22:19;;;;;;;7.45;2.13;;;;;;;26.92;41.62;100027.97;4973295;28;20034;-77
2023/08/07 09:24:44;;;;;;;5.30;2.40;;;;;;;27.03;42.54;100027.91;4987977;28;20062;-80
2023/08/07 09:27:10;;;;;;;5.53;1.73;;;;;;;27.10;41.51;100030.53;4972864;28;20447;-78
2023/08/07 09:29:35;;;;;;;3.67;2.00;;;;;;;27.16;42.52;100034.22;4972961;28;20034;-80
2023/08/07 09:32:18;;;;;;;11.75;2.38;;;;;;;27.19;42.10;100050.28;4987703;28;20074;-78
2023/08/07 09:34:44;;;;;;;3.08;2.67;;;;;;;27.25;41.98;100038.25;4972952;28;20023;-79
2023/08/07 09:37:09;;;;;;;6.70;2.08;;;;;;;27.18;41.87;100018.25;4972822;28;20027;-79
2023/08/07 09:39:38;;;;;;;3.35;2.08;;;;;;;27.29;41.18;100025.63;4973513;28;20089;-77
2023/08/07 09:42:04;;;;;;;8.07;2.03;;;;;;;27.49;41.73;100050.91;4974174;28;20038;-77
2023/08/07 09:44:38;;;;;;;5.97;2.88;;;;;;;27.40;39.91;100013.69;4974051;28;20026;-78
2023/08/07 09:47:15;;;;;;;26.05;3.20;;;;;;;27.62;40.38;100042.28;4973732;28;20107;-80
2023/08/07 09:49:41;;;;;;;4.88;2.13;;;;;;;27.74;38.51;100033.91;4974051;28;20054;-77
2023/08/07 09:52:09;;;;;;;5.70;2.00;;;;;;;27.76;38.87;100040.03;4973793;28;20093;-80
2023/08/07 09:54:36;;;;;;;9.02;2.72;;;;;;;27.78;38.73;100044.22;4988280;28;20117;-79
2023/08/07 09:57:02;;;;;;;9.38;2.13;;;;;;;27.77;38.20;100031.47;4972506;28;21324;-80
2023/08/07 09:59:29;;;;;;;4.65;2.30;;;;;;;27.93;38.01;100040.84;4973418;28;20442;-78
2023/08/07 10:01:56;;;;;;;5.32;2.08;;;;;;;27.92;37.24;100028.16;4973155;28;20125;-79
2023/08/07 10:04:22;;;;;;;5.50;1.92;;;;;;;27.99;37.86;100040.69;4973073;28;20026;-81
2023/08/07 10:06:49;;;;;;;6.95;3.13;;;;;;;28.01;37.83;100026.63;4974049;28;20050;-83
2023/08/07 10:09:14;;;;;;;1.88;1.70;;;;;;;28.22;37.12;100052.69;4972733;28;20421;-83
2023/08/07 10:11:41;;;;;;;6.43;2.30;;;;;;;28.32;37.37;100044.50;4972947;28;20031;-83
2023/08/07 10:14:08;;;;;;;5.72;2.00;;;;;;;28.47;37.07;100042.00;4972107;28;20023;-85
2023/08/07 10:16:39;;;;;;;5.13;2.40;;;;;;;28.52;37.36;100039.28;4972141;28;20051;-84
2023/08/07 10:19:05;;;;;;;7.90;2.10;;;;;;;28.61;37.05;100040.50;4972285;28;20494;-84
2023/08/07 10:21:33;;;;;;;7.32;1.75;;;;;;;28.75;37.01;100052.06;4972715;28;20114;-86
2023/08/07 10:24:03;;;;;;;3.72;1.90;;;;;;;28.75;35.95;100027.97;4973175;28;20055;-86
2023/08/07 10:26:28;;;;;;;16.02;2.55;;;;;;;28.88;35.12;100046.13;4974996;28;20042;-90
2023/08/07 10:28:55;;;;;;;13.85;2.15;;;;;;;28.92;35.77;100028.75;4975532;28;20030;-89
2023/08/07 10:31:23;;;;;;;6.75;1.60;;;;;;;29.02;36.05;100031.63;4976138;28;20057;-90
2023/08/07 10:33:49;;;;;;;5.82;2.30;;;;;;;29.08;35.89;100044.44;4974754;28;20031;-91
2023/08/07 10:36:16;;;;;;;2.90;1.60;;;;;;;29.11;35.70;100043.91;4976504;28;20030;-91
2023/08/07 10:38:42;;;;;;;2.88;2.08;;;;;;;29.20;36.00;100040.69;4974257;28;20031;-89
2023/08/07 10:41:14;;;;;;;3.40;2.22;;;;;;;29.34;36.00;100042.81;4974344;28;20165;-89
2023/08/07 10:43:45;;;;;;;5.13;1.42;;;;;;;29.52;36.17;100027.75;4977655;28;20026;-90
2023/08/07 10:46:21;;;;;;;3.55;1.83;;;;;;;29.55;35.44;100011.44;4984094;28;20042;-90
2023/08/07 10:48:53;;;;;;;5.13;1.98;;;;;;;29.74;35.03;100030.44;4987772;28;20404;-91
2023/08/07 10:51:18;;;;;;;;;;;;;;;29.83;35.19;100046.34;4976503;28;20080;-90
2023/08/07 10:53:47;;;;;;;8.23;2.00;;;;;;;29.87;34.29;100032.78;4976092;28;20017;-90
2023/08/07 10:56:15;;;;;;;4.60;1.70;;;;;;;30.08;34.07;100031.84;4976848;28;20377;-90
2023/08/07 10:58:42;;;;;;;9.32;1.95;;;;;;;30.08;33.01;100020.75;4976323;28;20050;-91
2023/08/07 11:01:22;;;;;;;3.08;1.90;;;;;;;30.18;33.60;100027.19;4975745;28;20054;-91
2023/08/07 11:03:55;;;;;;;2.40;1.60;;;;;;;30.07;33.32;100024.63;4974895;28;20023;-91
2023/08/07 11:06:31;;;;;;;12.98;2.00;;;;;;;30.10;33.39;100012.97;4975120;28;20023;-90
2023/08/07 11:08:57;;;;;;;9.25;2.85;;;;;;;30.26;33.25;100033.34;4974214;28;20394;-90
2023/08/07 11:11:23;;;;;;;4.97;1.90;;;;;;;30.41;32.94;100036.25;4974308;28;20030;-91
2023/08/07 11:13:49;;;;;;;6.30;1.95;;;;;;;30.42;33.04;100022.09;4975564;28;20031;-91
2023/08/07 11:16:15;;;;;;;3.35;2.10;;;;;;;30.61;32.65;100044.69;4977227;28;20115;-89
2023/08/07 11:18:42;;;;;;;16.20;2.58;;;;;;;30.71;32.81;100042.78;4974514;28;20027;-91
2023/08/07 11:21:10;;;;;;;5.80;1.63;;;;;;;30.81;31.91;100028.09;4975172;28;20131;-89